Terminal Aerodrome Forecast
Issued by NWS

Home | Current Version | Previous Version | Text Only | Print | Product List | Glossary On
Versions: 1 2 3 4 5 6 7 8 9 10 11 12 13 14 15 16 17 18 19
000
FTUS43 KMPX 232342
TAFRNH
TAF
KRNH 232342Z 2400/2424 02009KT P6SM OVC080
     FM240600 02012G20KT 4SM -SN OVC030
     FM241600 01014G24KT P6SM OVC035=

USA.gov is the U.S. government's official web portal to all federal, state and local government web resources and services.